createdAt,value
2018-03-16T00:02:26.632Z,3.53
2018-03-16T00:04:54.977Z,3.53
2018-03-16T00:07:23.297Z,3.53
2018-03-16T00:09:52.415Z,3.57
2018-03-16T00:12:20.728Z,3.50
2018-03-16T00:14:49.454Z,3.50
2018-03-16T00:17:17.784Z,3.47
2018-03-16T00:19:46.851Z,3.46
2018-03-16T00:22:22.891Z,3.44
2018-03-16T00:24:51.999Z,3.44
2018-03-16T00:27:21.083Z,3.48
2018-03-16T00:29:49.378Z,3.53
2018-03-16T00:32:17.722Z,3.70
2018-03-16T00:34:46.149Z,3.51
2018-03-16T00:37:14.895Z,3.50
2018-03-16T00:39:44.012Z,3.54
2018-03-16T00:42:12.311Z,3.50
2018-03-16T00:44:40.705Z,3.57
2018-03-16T00:47:09.015Z,3.51
2018-03-16T00:49:37.358Z,3.53
2018-03-16T00:52:05.700Z,3.64
2018-03-16T00:54:34.048Z,3.51
2018-03-16T00:57:02.342Z,3.45
2018-03-16T00:59:31.456Z,3.50
2018-03-16T01:01:59.772Z,3.40
2018-03-16T01:04:28.107Z,3.39
2018-03-16T01:06:56.414Z,3.39
2018-03-16T01:09:24.746Z,3.41
2018-03-16T01:11:53.854Z,3.36
2018-03-16T01:14:22.147Z,3.38
2018-03-16T01:16:51.272Z,3.33
2018-03-16T01:19:19.624Z,3.41
2018-03-16T01:21:47.934Z,3.44
2018-03-16T01:24:16.348Z,3.31
2018-03-16T01:26:45.417Z,3.37
2018-03-16T01:29:13.732Z,3.33
2018-03-16T01:31:42.077Z,3.32
2018-03-16T01:34:11.158Z,3.27
2018-03-16T01:36:39.493Z,3.26
2018-03-16T01:39:07.831Z,3.29
2018-03-16T01:41:36.180Z,3.24
2018-03-16T01:44:04.516Z,3.26
2018-03-16T01:46:32.891Z,3.23
2018-03-16T01:49:01.210Z,3.29
2018-03-16T01:51:29.514Z,3.33
2018-03-16T01:53:57.863Z,3.23
2018-03-16T01:56:26.175Z,3.19
2018-03-16T01:58:55.276Z,3.17
2018-03-16T02:01:24.349Z,3.14
2018-03-16T02:03:52.693Z,3.09
2018-03-16T02:06:22.057Z,3.10
2018-03-16T02:08:51.167Z,3.00
2018-03-16T02:11:19.463Z,3.05
2018-03-16T02:13:47.813Z,3.01
2018-03-16T02:16:16.116Z,2.97
2018-03-16T02:18:44.471Z,2.96
2018-03-16T02:21:14.274Z,2.97
2018-03-16T02:23:43.382Z,2.98
2018-03-16T02:26:11.689Z,2.97
2018-03-16T02:28:40.039Z,2.90
2018-03-16T02:31:08.492Z,2.90
2018-03-16T02:33:37.584Z,2.97
2018-03-16T02:36:06.682Z,3.00
2018-03-16T02:38:35.764Z,2.97
2018-03-16T02:41:04.893Z,2.83
2018-03-16T02:43:33.190Z,2.81
2018-03-16T02:46:01.541Z,2.78
2018-03-16T02:48:29.859Z,2.74
2018-03-16T02:50:58.185Z,2.76
2018-03-16T02:53:27.294Z,2.82
2018-03-16T02:55:55.603Z,2.77
2018-03-16T02:58:23.951Z,2.78
2018-03-16T03:00:52.302Z,2.76
2018-03-16T03:03:21.382Z,2.78
2018-03-16T03:05:49.703Z,2.76
2018-03-16T03:08:18.209Z,2.71
2018-03-16T03:10:46.558Z,2.67
2018-03-16T03:13:14.916Z,2.79
2018-03-16T03:15:44.145Z,2.74
2018-03-16T03:18:12.618Z,2.67
2018-03-16T03:20:40.926Z,2.66
2018-03-16T03:23:09.255Z,2.63
2018-03-16T03:25:38.511Z,2.61
2018-03-16T03:28:06.843Z,2.56
2018-03-16T03:30:35.151Z,2.54
2018-03-16T03:33:03.573Z,2.64
2018-03-16T03:35:32.675Z,2.54
2018-03-16T03:38:01.772Z,2.54
2018-03-16T03:40:30.890Z,2.53
2018-03-16T03:43:00.229Z,2.50
2018-03-16T03:45:28.631Z,2.49
2018-03-16T03:47:56.930Z,2.40
2018-03-16T03:50:26.063Z,2.42
2018-03-16T03:52:54.382Z,2.35
2018-03-16T03:55:22.813Z,2.37
2018-03-16T03:57:51.392Z,2.36
2018-03-16T04:00:20.474Z,2.31
2018-03-16T04:02:48.849Z,2.29
2018-03-16T04:05:18.009Z,2.27
2018-03-16T04:07:46.406Z,2.21
2018-03-16T04:10:16.598Z,2.18
2018-03-16T04:12:44.969Z,2.15
2018-03-16T04:15:13.411Z,2.15
2018-03-16T04:17:41.751Z,2.20
2018-03-16T04:20:11.022Z,2.21
2018-03-16T04:22:39.360Z,2.13
2018-03-16T04:25:07.696Z,2.29
2018-03-16T04:27:36.229Z,2.25
2018-03-16T04:30:04.606Z,2.15
2018-03-16T04:32:32.944Z,2.07
2018-03-16T04:35:01.305Z,2.07
2018-03-16T04:37:29.702Z,1.86
2018-03-16T04:39:58.786Z,2.04
2018-03-16T04:42:27.125Z,1.96
2018-03-16T04:44:56.190Z,1.97
2018-03-16T04:47:24.650Z,2.03
2018-03-16T04:49:53.056Z,2.04
2018-03-16T04:52:21.802Z,2.02
2018-03-16T04:54:51.046Z,1.97
2018-03-16T04:57:19.440Z,2.03
2018-03-16T04:59:47.819Z,2.02
2018-03-16T05:02:16.236Z,1.98
2018-03-16T05:04:45.378Z,1.95
2018-03-16T05:07:15.250Z,2.01
2018-03-16T05:09:43.743Z,1.94
2018-03-16T05:12:12.250Z,1.95
2018-03-16T05:14:40.945Z,1.95
2018-03-16T05:17:09.359Z,1.98
2018-03-16T05:19:37.784Z,1.96
2018-03-16T05:22:06.966Z,2.12
2018-03-16T05:24:36.085Z,2.00
2018-03-16T05:27:04.446Z,1.94
2018-03-16T05:29:33.574Z,1.96
2018-03-16T05:32:01.902Z,1.91
2018-03-16T05:34:31.034Z,1.91
2018-03-16T05:36:59.332Z,1.94
2018-03-16T05:39:27.690Z,1.90
2018-03-16T05:41:55.996Z,1.92
2018-03-16T05:44:24.334Z,1.92
2018-03-16T05:46:52.932Z,1.93
2018-03-16T05:49:21.250Z,1.99
2018-03-16T05:51:49.592Z,1.99
2018-03-16T05:54:17.939Z,1.83
2018-03-16T05:56:47.073Z,1.81
2018-03-16T05:59:15.399Z,1.84
2018-03-16T06:01:44.510Z,1.79
2018-03-16T06:04:13.594Z,1.88
2018-03-16T06:06:42.862Z,1.95
2018-03-16T06:09:11.944Z,1.87
2018-03-16T06:11:40.304Z,1.95
2018-03-16T06:14:08.659Z,2.02
2018-03-16T06:16:37.022Z,1.85
2018-03-16T06:19:06.091Z,1.80
2018-03-16T06:21:34.851Z,1.77
2018-03-16T06:24:03.179Z,1.79
2018-03-16T06:26:31.538Z,1.68
2018-03-16T06:28:59.898Z,1.83
2018-03-16T06:31:28.284Z,1.87
2018-03-16T06:33:56.790Z,1.80
2018-03-16T06:36:25.145Z,1.78
2018-03-16T06:38:53.497Z,1.75
2018-03-16T06:41:21.824Z,1.75
2018-03-16T06:43:50.184Z,1.75
2018-03-16T06:46:18.536Z,1.69
2018-03-16T06:48:46.897Z,1.66
2018-03-16T06:51:15.305Z,1.68
2018-03-16T06:53:43.662Z,1.74
2018-03-16T06:56:12.955Z,1.80
2018-03-16T06:58:41.303Z,1.68
2018-03-16T07:01:09.668Z,1.66
2018-03-16T07:03:38.039Z,1.75
2018-03-16T07:06:08.027Z,1.59
2018-03-16T07:08:37.159Z,1.63
2018-03-16T07:11:05.505Z,1.58
2018-03-16T07:13:33.875Z,1.65
2018-03-16T07:16:02.631Z,1.63
2018-03-16T07:18:31.048Z,1.60
2018-03-16T07:21:01.477Z,1.70
2018-03-16T07:23:30.562Z,1.73
2018-03-16T07:25:58.919Z,1.66
2018-03-16T07:28:28.012Z,1.53
2018-03-16T07:30:57.242Z,1.56
2018-03-16T07:33:25.567Z,1.55
2018-03-16T07:35:54.692Z,1.55
2018-03-16T07:38:23.027Z,1.55
2018-03-16T07:40:52.613Z,1.53
2018-03-16T07:43:22.341Z,1.53
2018-03-16T07:45:57.764Z,1.69
2018-03-16T07:48:26.145Z,1.69
2018-03-16T07:50:54.609Z,1.72
2018-03-16T07:53:22.955Z,1.70
2018-03-16T07:55:51.290Z,1.79
2018-03-16T07:58:20.427Z,1.72
2018-03-16T08:00:50.265Z,1.68
2018-03-16T08:03:18.625Z,1.57
2018-03-16T08:05:46.986Z,1.52
2018-03-16T08:08:15.333Z,1.51
2018-03-16T08:10:44.458Z,1.60
2018-03-16T08:13:13.205Z,1.56
2018-03-16T08:15:41.567Z,1.60
2018-03-16T08:18:09.897Z,1.79
2018-03-16T08:20:38.256Z,1.57
2018-03-16T08:23:07.333Z,1.66
2018-03-16T08:25:35.674Z,1.52
2018-03-16T08:28:04.046Z,1.49
2018-03-16T08:30:32.364Z,1.70
2018-03-16T08:33:00.718Z,1.63
2018-03-16T08:35:29.076Z,1.82
2018-03-16T08:37:57.411Z,1.67
2018-03-16T08:40:26.549Z,1.61
2018-03-16T08:42:54.880Z,1.80
2018-03-16T08:45:24.000Z,1.69
2018-03-16T08:47:52.451Z,1.70
2018-03-16T08:50:20.824Z,1.18
2018-03-16T08:52:49.165Z,1.80
2018-03-16T08:55:18.381Z,1.94
2018-03-16T08:57:46.732Z,1.84
2018-03-16T09:00:15.072Z,1.75
2018-03-16T09:02:44.157Z,1.78
2018-03-16T09:05:12.549Z,1.69
2018-03-16T09:07:42.033Z,1.88
2018-03-16T09:10:10.356Z,1.86
2018-03-16T09:12:38.822Z,1.64
2018-03-16T09:15:07.775Z,1.63
2018-03-16T09:17:36.678Z,1.71
2018-03-16T09:20:05.798Z,1.69
2018-03-16T09:22:34.099Z,1.81
2018-03-16T09:25:03.223Z,1.64
2018-03-16T09:27:31.541Z,1.71
2018-03-16T09:30:00.656Z,1.74
2018-03-16T09:32:29.316Z,1.73
2018-03-16T09:34:57.652Z,1.87
2018-03-16T09:37:25.988Z,1.81
2018-03-16T09:39:54.516Z,1.83
2018-03-16T09:42:22.992Z,1.80
2018-03-16T09:44:51.374Z,1.87
2018-03-16T09:47:19.696Z,2.06
2018-03-16T09:49:48.807Z,2.01
2018-03-16T09:52:17.156Z,1.77
2018-03-16T09:55:04.006Z,1.80
2018-03-16T09:57:32.380Z,1.72
2018-03-16T10:00:00.688Z,1.64
2018-03-16T10:02:29.048Z,1.77
2018-03-16T10:04:57.375Z,1.73
2018-03-16T10:07:26.484Z,1.93
2018-03-16T10:09:54.844Z,2.29
2018-03-16T10:12:23.933Z,2.07
2018-03-16T10:14:52.537Z,1.89
2018-03-16T10:17:21.615Z,1.93
2018-03-16T10:19:49.972Z,1.84
2018-03-16T10:22:18.344Z,2.18
2018-03-16T10:24:46.728Z,2.17
2018-03-16T10:27:15.053Z,2.42
2018-03-16T10:29:43.365Z,2.40
2018-03-16T10:32:11.716Z,2.25
2018-03-16T10:34:40.163Z,2.11
2018-03-16T10:37:09.362Z,1.95
2018-03-16T10:39:38.490Z,1.87
2018-03-16T10:42:06.825Z,2.00
2018-03-16T10:44:35.181Z,1.98
2018-03-16T10:47:03.501Z,1.70
2018-03-16T10:49:32.615Z,1.97
2018-03-16T10:52:00.924Z,2.25
2018-03-16T10:54:29.240Z,1.78
2018-03-16T10:56:58.374Z,1.78
2018-03-16T10:59:26.682Z,2.06
2018-03-16T11:01:55.905Z,1.81
2018-03-16T11:04:29.890Z,1.75
2018-03-16T11:07:03.772Z,1.76
2018-03-16T11:09:32.101Z,1.71
2018-03-16T11:12:00.432Z,1.99
2018-03-16T11:14:28.796Z,1.79
2018-03-16T11:16:57.115Z,1.80
2018-03-16T11:19:25.431Z,1.81
2018-03-16T11:21:53.772Z,1.70
2018-03-16T11:24:22.088Z,1.61
2018-03-16T11:26:50.503Z,1.79
2018-03-16T11:29:18.814Z,1.84
2018-03-16T11:31:48.659Z,1.93
2018-03-16T11:34:17.141Z,1.65
2018-03-16T11:36:45.482Z,2.02
2018-03-16T11:39:14.775Z,2.05
2018-03-16T11:41:43.948Z,1.95
2018-03-16T11:44:12.331Z,1.77
2018-03-16T11:46:41.671Z,1.67
2018-03-16T11:49:10.976Z,1.69
2018-03-16T11:51:41.334Z,1.48
2018-03-16T11:54:12.658Z,1.50
2018-03-16T11:56:41.894Z,1.22
2018-03-16T11:59:10.275Z,1.50
2018-03-16T12:01:39.011Z,1.56
2018-03-16T12:04:08.722Z,1.42
2018-03-16T12:06:38.300Z,1.33
2018-03-16T12:09:06.618Z,1.42
2018-03-16T12:11:35.137Z,1.31
2018-03-16T12:14:03.514Z,1.23
2018-03-16T12:16:31.877Z,1.62
2018-03-16T12:19:00.231Z,1.51
2018-03-16T12:21:29.379Z,1.47
2018-03-16T12:23:57.830Z,1.53
2018-03-16T12:26:27.062Z,1.54
2018-03-16T12:28:55.457Z,1.38
2018-03-16T12:31:24.578Z,1.00
2018-03-16T12:33:52.880Z,1.19
2018-03-16T12:36:23.370Z,1.09
2018-03-16T12:38:52.609Z,1.38
2018-03-16T12:41:21.728Z,1.05
2018-03-16T12:43:50.791Z,0.98
2018-03-16T12:46:19.198Z,0.98
2018-03-16T12:48:48.526Z,1.35
2018-03-16T12:51:17.683Z,1.26
2018-03-16T12:53:46.385Z,1.16
2018-03-16T12:56:15.783Z,1.09
2018-03-16T12:58:44.177Z,0.83
2018-03-16T13:01:12.583Z,0.74
2018-03-16T13:03:41.694Z,0.61
2018-03-16T13:06:11.222Z,0.83
2018-03-16T13:08:39.579Z,1.15
2018-03-16T13:11:07.968Z,0.84
2018-03-16T13:13:36.353Z,0.72
2018-03-16T13:16:04.735Z,0.54
2018-03-16T13:18:33.072Z,0.77
2018-03-16T13:21:02.222Z,1.04
2018-03-16T13:23:30.542Z,1.18
2018-03-16T13:25:59.632Z,0.98
2018-03-16T13:28:29.109Z,0.87
2018-03-16T13:30:58.651Z,0.86
2018-03-16T13:33:26.927Z,0.84
2018-03-16T13:35:55.310Z,1.00
2018-03-16T13:38:23.683Z,0.80
2018-03-16T13:40:53.562Z,0.94
2018-03-16T13:43:21.947Z,0.59
2018-03-16T13:45:50.288Z,0.47
2018-03-16T13:48:18.607Z,0.48
2018-03-16T13:50:46.954Z,0.53
2018-03-16T13:53:15.286Z,0.63
2018-03-16T13:55:44.421Z,0.55
2018-03-16T13:58:12.776Z,0.47
2018-03-16T14:00:41.097Z,0.44
2018-03-16T14:03:09.478Z,0.40
2018-03-16T14:05:37.787Z,0.47
2018-03-16T14:08:06.890Z,0.42
2018-03-16T14:10:36.638Z,0.25
2018-03-16T14:13:04.965Z,0.14
2018-03-16T14:15:34.082Z,0.20
2018-03-16T14:18:02.394Z,0.23
2018-03-16T14:20:30.754Z,0.29
2018-03-16T14:22:59.084Z,0.10
2018-03-16T14:25:27.441Z,0.20
2018-03-16T14:27:55.805Z,0.07
2018-03-16T14:30:24.130Z,0.03
2018-03-16T14:32:53.232Z,-0.02
2018-03-16T14:35:21.602Z,0.03
2018-03-16T14:37:49.981Z,-0.04
2018-03-16T14:40:18.586Z,0.03
2018-03-16T14:42:46.950Z,0.05
2018-03-16T14:45:15.302Z,0.03
2018-03-16T14:47:43.627Z,-0.03
2018-03-16T14:50:11.979Z,-0.08
2018-03-16T14:52:40.300Z,0.22
2018-03-16T14:55:09.309Z,0.04
2018-03-16T14:57:37.626Z,0.02
2018-03-16T15:00:06.131Z,0.02
2018-03-16T15:02:34.473Z,0.03
2018-03-16T15:05:03.599Z,-0.03
2018-03-16T15:07:32.177Z,0.07
2018-03-16T15:10:00.681Z,0.00
2018-03-16T15:12:29.942Z,0.27
2018-03-16T15:15:01.474Z,0.22
2018-03-16T15:17:29.797Z,0.39
2018-03-16T15:19:59.521Z,0.21
2018-03-16T15:22:27.822Z,0.19
2018-03-16T15:24:56.123Z,0.15
2018-03-16T15:27:27.262Z,0.22
2018-03-16T15:29:56.725Z,0.18
2018-03-16T15:32:25.503Z,0.07
2018-03-16T15:34:53.847Z,0.10
2018-03-16T15:37:22.991Z,0.07
2018-03-16T15:39:52.158Z,0.11
2018-03-16T15:42:20.526Z,-0.02
2018-03-16T15:44:48.977Z,-0.03
2018-03-16T15:47:18.141Z,-0.05
2018-03-16T15:49:46.915Z,-0.04
2018-03-16T15:52:15.298Z,-0.05
2018-03-16T15:54:43.687Z,-0.02
2018-03-16T15:57:12.028Z,-0.03
2018-03-16T15:59:43.320Z,-0.03
2018-03-16T16:02:12.365Z,-0.01
2018-03-16T16:04:41.475Z,-0.07
2018-03-16T16:07:10.165Z,-0.02
2018-03-16T16:09:41.859Z,-0.03
2018-03-16T16:12:10.237Z,0.17
2018-03-16T16:14:38.759Z,0.10
2018-03-16T16:17:07.159Z,-0.03
2018-03-16T16:19:35.544Z,-0.18
2018-03-16T16:22:03.947Z,-0.22
2018-03-16T16:24:32.879Z,-0.18
2018-03-16T16:27:01.713Z,-0.29
2018-03-16T16:29:30.077Z,-0.35
2018-03-16T16:31:59.960Z,-0.44
2018-03-16T16:34:28.794Z,-0.45
2018-03-16T16:36:57.421Z,-0.50
2018-03-16T16:39:25.941Z,-0.41
2018-03-16T16:41:55.783Z,-0.47
2018-03-16T16:44:24.936Z,-0.46
2018-03-16T16:46:53.453Z,-0.46
2018-03-16T16:49:23.416Z,-0.51
2018-03-16T16:51:53.014Z,-0.51
2018-03-16T16:54:21.390Z,-0.54
2018-03-16T16:56:51.427Z,-0.57
2018-03-16T16:59:19.981Z,-0.63
2018-03-16T17:01:48.388Z,-0.67
2018-03-16T17:04:16.861Z,-0.67
2018-03-16T17:06:46.201Z,-0.58
2018-03-16T17:12:30.339Z,-0.71
2018-03-16T17:14:59.500Z,-0.86
2018-03-16T17:17:27.935Z,-0.78
2018-03-16T17:19:57.174Z,-0.79
2018-03-16T17:22:25.647Z,-0.88
2018-03-16T17:24:54.111Z,-0.89
2018-03-16T17:27:23.062Z,-0.86
2018-03-16T17:29:51.546Z,-0.93
2018-03-16T17:32:24.334Z,-0.89
2018-03-16T17:34:51.968Z,-0.93
2018-03-16T17:37:20.416Z,-0.97
2018-03-16T17:39:51.300Z,-0.96
2018-03-16T17:42:21.207Z,-1.01
2018-03-16T17:44:49.658Z,-1.04
2018-03-16T17:47:18.848Z,-1.04
2018-03-16T17:49:47.246Z,-1.01
2018-03-16T17:52:16.409Z,-1.02
2018-03-16T17:54:44.994Z,-1.05
2018-03-16T17:57:13.573Z,-1.06
2018-03-16T17:59:41.962Z,-1.02
2018-03-16T18:02:10.380Z,-1.08
2018-03-16T18:04:39.698Z,-1.10
2018-03-16T18:07:15.959Z,-1.11
2018-03-16T18:09:44.438Z,-1.08
2018-03-16T18:12:12.829Z,-1.19
2018-03-16T18:14:41.266Z,-1.20
2018-03-16T18:17:09.636Z,-1.09
2018-03-16T18:19:38.141Z,-1.18
2018-03-16T18:22:06.616Z,-1.22
2018-03-16T18:24:35.862Z,-1.27
2018-03-16T18:27:04.416Z,-1.29
2018-03-16T18:29:32.842Z,-1.32
2018-03-16T18:32:01.239Z,-1.36
2018-03-16T18:34:38.097Z,-1.31
2018-03-16T18:37:06.649Z,-1.38
2018-03-16T18:39:35.076Z,-1.40
2018-03-16T18:42:03.496Z,-1.37
2018-03-16T18:44:31.866Z,-1.44
2018-03-16T18:47:00.422Z,-1.37
2018-03-16T18:49:52.521Z,-1.45
2018-03-16T18:52:20.900Z,-1.47
2018-03-16T18:54:49.686Z,-1.39
2018-03-16T18:57:18.052Z,-1.46
2018-03-16T18:59:46.459Z,-1.49
2018-03-16T19:02:14.991Z,-1.47
2018-03-16T19:04:43.362Z,-1.54
2018-03-16T19:07:11.712Z,-1.45
2018-03-16T19:09:40.140Z,-1.55
2018-03-16T19:12:08.742Z,-1.47
2018-03-16T19:14:38.133Z,-1.51
2018-03-16T19:17:06.469Z,-1.61
2018-03-16T19:19:35.738Z,-1.88
2018-03-16T19:22:04.774Z,-1.59
2018-03-16T19:24:34.124Z,-1.68
2018-03-16T19:27:02.486Z,-1.62
2018-03-16T19:29:30.999Z,-1.62
2018-03-16T19:31:59.314Z,-1.62
2018-03-16T19:34:28.180Z,-1.64
2018-03-16T19:36:57.490Z,-1.61
2018-03-16T19:39:27.529Z,-1.57
2018-03-16T19:41:56.147Z,-1.62
2018-03-16T19:44:27.447Z,-1.63
2018-03-16T19:46:56.783Z,-1.55
2018-03-16T19:49:25.228Z,-1.60
2018-03-16T19:51:54.343Z,-1.62
2018-03-16T19:54:22.684Z,-1.65
2018-03-16T19:57:03.006Z,-1.61
2018-03-16T19:59:31.448Z,-1.62
2018-03-16T20:01:59.869Z,-1.67
2018-03-16T20:04:29.178Z,-1.69
2018-03-16T20:06:57.526Z,-1.72
2018-03-16T20:09:25.928Z,-1.76
2018-03-16T20:11:54.297Z,-1.74
2018-03-16T20:14:22.681Z,-1.73
2018-03-16T20:16:51.037Z,-1.75
2018-03-16T20:19:20.032Z,-1.81
2018-03-16T20:21:48.624Z,-1.86
2018-03-16T20:24:16.954Z,-1.87
2018-03-16T20:26:46.210Z,-1.93
2018-03-16T20:29:15.573Z,-1.99
2018-03-16T20:31:44.432Z,-1.99
2018-03-16T20:34:12.821Z,-2.22
2018-03-16T20:36:43.269Z,-2.10
2018-03-16T20:39:11.677Z,-2.08
2018-03-16T20:41:40.823Z,-2.06
2018-03-16T20:44:10.491Z,-2.04
2018-03-16T20:46:38.831Z,-2.10
2018-03-16T20:49:07.626Z,-2.07
2018-03-16T20:51:35.970Z,-2.07
2018-03-16T20:54:04.726Z,-2.07
2018-03-16T20:56:33.135Z,-2.15
2018-03-16T20:59:02.249Z,-2.16
2018-03-16T21:01:31.392Z,-2.16
2018-03-16T21:03:59.734Z,-2.11
2018-03-16T21:06:28.083Z,-2.08
2018-03-16T21:08:56.461Z,-2.10
2018-03-16T21:11:25.657Z,-2.19
2018-03-16T21:13:55.349Z,-2.22
2018-03-16T21:16:23.713Z,-2.18
2018-03-16T21:18:52.063Z,-2.23
2018-03-16T21:21:20.408Z,-2.22
2018-03-16T21:23:48.807Z,-2.24
2018-03-16T21:26:17.218Z,-2.19
2018-03-16T21:28:45.609Z,-2.21
2018-03-16T21:31:14.264Z,-2.20
2018-03-16T21:33:43.205Z,-2.17
2018-03-16T21:36:11.571Z,-2.14
2018-03-16T21:38:40.627Z,-2.16
2018-03-16T21:41:09.495Z,-2.13
2018-03-16T21:43:37.844Z,-2.08
2018-03-16T21:46:06.191Z,-2.11
2018-03-16T21:48:34.562Z,-2.26
2018-03-16T21:51:03.795Z,-2.12
2018-03-16T21:53:32.944Z,-2.19
2018-03-16T21:56:02.051Z,-2.15
2018-03-16T21:58:31.190Z,-2.23
2018-03-16T22:01:00.969Z,-2.30
2018-03-16T22:03:29.350Z,-2.23
2018-03-16T22:05:57.971Z,-2.32
2018-03-16T22:08:26.335Z,-2.34
2018-03-16T22:10:54.685Z,-2.32
2018-03-16T22:13:23.077Z,-2.32
2018-03-16T22:15:51.528Z,-2.32
2018-03-16T22:18:20.155Z,-2.35
2018-03-16T22:20:50.199Z,-2.31
2018-03-16T22:23:18.596Z,-2.37
2018-03-16T22:25:46.966Z,-2.52
2018-03-16T22:28:15.337Z,-2.56
2018-03-16T22:30:43.736Z,-2.55
2018-03-16T22:33:12.126Z,-2.56
2018-03-16T22:35:40.648Z,-2.57
2018-03-16T22:38:09.830Z,-2.57
2018-03-16T22:40:38.176Z,-2.64
2018-03-16T22:43:06.512Z,-2.65
2018-03-16T22:45:35.654Z,-2.68
2018-03-16T22:48:04.098Z,-2.66
2018-03-16T22:50:32.612Z,-2.75
2018-03-16T22:53:01.194Z,-2.73
2018-03-16T22:55:29.672Z,-2.81
2018-03-16T22:57:58.087Z,-2.83
2018-03-16T23:00:26.477Z,-2.77
2018-03-16T23:02:56.006Z,-2.88
2018-03-16T23:05:25.146Z,-2.84
2018-03-16T23:07:53.592Z,-2.83
2018-03-16T23:10:21.997Z,-2.85
2018-03-16T23:12:50.819Z,-2.75
2018-03-16T23:15:19.267Z,-2.92
2018-03-16T23:17:47.763Z,-2.84
2018-03-16T23:20:16.145Z,-2.87
2018-03-16T23:22:44.474Z,-2.92
2018-03-16T23:25:12.855Z,-2.93
2018-03-16T23:27:41.234Z,-2.94
2018-03-16T23:30:09.632Z,-2.94
2018-03-16T23:32:38.049Z,-2.96
2018-03-16T23:35:06.492Z,-2.90
2018-03-16T23:37:34.850Z,-2.91
2018-03-16T23:40:03.298Z,-2.86
2018-03-16T23:42:31.676Z,-2.94
2018-03-16T23:45:00.849Z,-2.95
2018-03-16T23:47:29.230Z,-3.02
2018-03-16T23:49:58.428Z,-2.93
2018-03-16T23:52:26.789Z,-2.87
2018-03-16T23:55:14.320Z,-2.96
2018-03-16T23:57:42.667Z,-3.05
